sensor_id;sensor_type;location;lat;lon;timestamp;temperature;humidity
46508;DHT22;32223;53.654;10.014;2023-06-24T00:01:16;15.50;99.90
46508;DHT22;32223;53.654;10.014;2023-06-24T00:03:41;15.50;99.90
46508;DHT22;32223;53.654;10.014;2023-06-24T00:06:12;15.40;99.90
46508;DHT22;32223;53.654;10.014;2023-06-24T00:08:49;15.40;99.90
46508;DHT22;32223;53.654;10.014;2023-06-24T00:11:15;15.40;99.90
46508;DHT22;32223;53.654;10.014;2023-06-24T00:13:42;15.40;99.90
46508;DHT22;32223;53.654;10.014;2023-06-24T00:16:08;15.40;99.90
46508;DHT22;32223;53.654;10.014;2023-06-24T00:18:34;15.30;99.90
46508;DHT22;32223;53.654;10.014;2023-06-24T00:21:00;15.30;99.90
46508;DHT22;32223;53.654;10.014;2023-06-24T00:23:30;15.30;99.90
46508;DHT22;32223;53.654;10.014;2023-06-24T00:25:58;15.20;99.90
46508;DHT22;32223;53.654;10.014;2023-06-24T00:28:24;15.10;99.90
46508;DHT22;32223;53.654;10.014;2023-06-24T00:30:49;15.10;99.90
46508;DHT22;32223;53.654;10.014;2023-06-24T00:33:15;15.00;99.90
46508;DHT22;32223;53.654;10.014;2023-06-24T00:35:45;14.90;99.90
46508;DHT22;32223;53.654;10.014;2023-06-24T00:38:11;14.90;99.90
46508;DHT22;32223;53.654;10.014;2023-06-24T00:40:37;14.90;99.90
46508;DHT22;32223;53.654;10.014;2023-06-24T00:43:05;14.80;99.90
46508;DHT22;32223;53.654;10.014;2023-06-24T00:45:30;14.80;99.90
46508;DHT22;32223;53.654;10.014;2023-06-24T00:48:00;14.70;99.90
46508;DHT22;32223;53.654;10.014;2023-06-24T00:50:26;14.70;99.90
46508;DHT22;32223;53.654;10.014;2023-06-24T00:52:52;14.70;99.90
46508;DHT22;32223;53.654;10.014;2023-06-24T00:55:18;14.60;99.90
46508;DHT22;32223;53.654;10.014;2023-06-24T00:57:47;14.60;99.90
46508;DHT22;32223;53.654;10.014;2023-06-24T01:00:18;14.60;99.90
46508;DHT22;32223;53.654;10.014;2023-06-24T01:02:47;14.50;99.90
46508;DHT22;32223;53.654;10.014;2023-06-24T01:05:13;14.50;99.90
46508;DHT22;32223;53.654;10.014;2023-06-24T01:07:40;14.40;99.90
46508;DHT22;32223;53.654;10.014;2023-06-24T01:10:07;14.40;99.90
46508;DHT22;32223;53.654;10.014;2023-06-24T01:12:35;14.40;99.90
46508;DHT22;32223;53.654;10.014;2023-06-24T01:15:02;14.40;99.90
46508;DHT22;32223;53.654;10.014;2023-06-24T01:17:34;14.40;99.90
46508;DHT22;32223;53.654;10.014;2023-06-24T01:22:57;14.30;99.90
46508;DHT22;32223;53.654;10.014;2023-06-24T01:34:03;14.20;99.90
46508;DHT22;32223;53.654;10.014;2023-06-24T01:36:33;14.20;99.90
46508;DHT22;32223;53.654;10.014;2023-06-24T01:39:05;14.20;99.90
46508;DHT22;32223;53.654;10.014;2023-06-24T01:41:36;14.10;99.90
46508;DHT22;32223;53.654;10.014;2023-06-24T01:44:08;14.10;99.90
46508;DHT22;32223;53.654;10.014;2023-06-24T01:46:35;14.10;99.90
46508;DHT22;32223;53.654;10.014;2023-06-24T01:49:04;14.00;99.90
46508;DHT22;32223;53.654;10.014;2023-06-24T01:51:33;14.00;99.90
46508;DHT22;32223;53.654;10.014;2023-06-24T01:54:04;14.10;99.90
46508;DHT22;32223;53.654;10.014;2023-06-24T01:56:32;14.00;99.90
46508;DHT22;32223;53.654;10.014;2023-06-24T01:59:01;14.00;99.90
46508;DHT22;32223;53.654;10.014;2023-06-24T02:01:27;13.90;99.90
46508;DHT22;32223;53.654;10.014;2023-06-24T02:03:54;13.90;99.90
46508;DHT22;32223;53.654;10.014;2023-06-24T02:06:22;13.90;99.90
46508;DHT22;32223;53.654;10.014;2023-06-24T02:08:50;13.80;99.90
46508;DHT22;32223;53.654;10.014;2023-06-24T02:11:19;13.90;99.90
46508;DHT22;32223;53.654;10.014;2023-06-24T02:13:44;13.80;99.90
46508;DHT22;32223;53.654;10.014;2023-06-24T02:16:12;13.80;99.90
46508;DHT22;32223;53.654;10.014;2023-06-24T02:18:39;13.80;99.90
46508;DHT22;32223;53.654;10.014;2023-06-24T02:21:08;13.70;99.90
46508;DHT22;32223;53.654;10.014;2023-06-24T02:23:35;13.70;99.90
46508;DHT22;32223;53.654;10.014;2023-06-24T02:26:03;13.70;99.90
46508;DHT22;32223;53.654;10.014;2023-06-24T02:28:31;13.60;99.90
46508;DHT22;32223;53.654;10.014;2023-06-24T02:30:58;13.60;99.90
46508;DHT22;32223;53.654;10.014;2023-06-24T02:33:25;13.60;99.90
46508;DHT22;32223;53.654;10.014;2023-06-24T02:35:52;13.60;99.90
46508;DHT22;32223;53.654;10.014;2023-06-24T02:38:18;13.60;99.90
46508;DHT22;32223;53.654;10.014;2023-06-24T02:40:45;13.60;99.90
46508;DHT22;32223;53.654;10.014;2023-06-24T02:43:11;13.50;99.90
46508;DHT22;32223;53.654;10.014;2023-06-24T02:45:37;13.50;99.90
46508;DHT22;32223;53.654;10.014;2023-06-24T02:48:04;13.40;99.90
46508;DHT22;32223;53.654;10.014;2023-06-24T02:50:31;13.40;99.90
46508;DHT22;32223;53.654;10.014;2023-06-24T02:52:58;13.40;99.90
46508;DHT22;32223;53.654;10.014;2023-06-24T02:55:24;13.40;99.90
46508;DHT22;32223;53.654;10.014;2023-06-24T02:57:50;13.40;99.90
46508;DHT22;32223;53.654;10.014;2023-06-24T03:00:17;13.40;99.90
46508;DHT22;32223;53.654;10.014;2023-06-24T03:02:43;13.40;99.90
46508;DHT22;32223;53.654;10.014;2023-06-24T03:05:10;13.40;99.90
46508;DHT22;32223;53.654;10.014;2023-06-24T03:07:37;13.50;99.90
46508;DHT22;32223;53.654;10.014;2023-06-24T03:10:04;13.40;99.90
46508;DHT22;32223;53.654;10.014;2023-06-24T03:12:31;13.40;99.90
46508;DHT22;32223;53.654;10.014;2023-06-24T03:14:57;13.40;99.90
46508;DHT22;32223;53.654;10.014;2023-06-24T03:17:22;13.40;99.90
46508;DHT22;32223;53.654;10.014;2023-06-24T03:19:50;13.40;99.90
46508;DHT22;32223;53.654;10.014;2023-06-24T03:22:15;13.40;99.90
46508;DHT22;32223;53.654;10.014;2023-06-24T03:24:42;13.40;99.90
46508;DHT22;32223;53.654;10.014;2023-06-24T03:27:08;13.50;99.90
46508;DHT22;32223;53.654;10.014;2023-06-24T03:29:34;13.50;99.90
46508;DHT22;32223;53.654;10.014;2023-06-24T03:31:59;13.50;99.90
46508;DHT22;32223;53.654;10.014;2023-06-24T03:34:25;13.50;99.90
46508;DHT22;32223;53.654;10.014;2023-06-24T03:36:53;13.50;99.90
46508;DHT22;32223;53.654;10.014;2023-06-24T03:39:19;13.50;99.90
46508;DHT22;32223;53.654;10.014;2023-06-24T03:41:46;13.50;99.90
46508;DHT22;32223;53.654;10.014;2023-06-24T03:44:12;13.60;99.90
46508;DHT22;32223;53.654;10.014;2023-06-24T03:46:37;13.60;99.90
46508;DHT22;32223;53.654;10.014;2023-06-24T03:49:03;13.70;99.90
46508;DHT22;32223;53.654;10.014;2023-06-24T03:51:29;13.70;99.90
46508;DHT22;32223;53.654;10.014;2023-06-24T03:53:54;13.70;99.90
46508;DHT22;32223;53.654;10.014;2023-06-24T03:56:20;13.80;99.90
46508;DHT22;32223;53.654;10.014;2023-06-24T03:58:46;13.80;99.90
46508;DHT22;32223;53.654;10.014;2023-06-24T04:01:11;13.90;99.90
46508;DHT22;32223;53.654;10.014;2023-06-24T04:03:37;14.00;99.90
46508;DHT22;32223;53.654;10.014;2023-06-24T04:06:02;14.10;99.90
46508;DHT22;32223;53.654;10.014;2023-06-24T04:08:28;14.10;99.90
46508;DHT22;32223;53.654;10.014;2023-06-24T04:10:57;14.20;99.90
46508;DHT22;32223;53.654;10.014;2023-06-24T04:13:25;14.20;99.90
46508;DHT22;32223;53.654;10.014;2023-06-24T04:15:51;14.30;99.90
46508;DHT22;32223;53.654;10.014;2023-06-24T04:18:17;14.30;99.90
46508;DHT22;32223;53.654;10.014;2023-06-24T04:20:43;14.40;99.90
46508;DHT22;32223;53.654;10.014;2023-06-24T04:23:09;14.40;99.90
46508;DHT22;32223;53.654;10.014;2023-06-24T04:25:36;14.50;99.90
46508;DHT22;32223;53.654;10.014;2023-06-24T04:28:02;14.50;99.90
46508;DHT22;32223;53.654;10.014;2023-06-24T04:30:30;14.60;99.90
46508;DHT22;32223;53.654;10.014;2023-06-24T04:32:56;14.60;99.90
46508;DHT22;32223;53.654;10.014;2023-06-24T04:35:21;14.70;99.90
46508;DHT22;32223;53.654;10.014;2023-06-24T04:37:47;14.70;99.90
46508;DHT22;32223;53.654;10.014;2023-06-24T04:40:16;14.80;99.90
46508;DHT22;32223;53.654;10.014;2023-06-24T04:42:42;14.90;99.90
46508;DHT22;32223;53.654;10.014;2023-06-24T04:45:07;14.90;99.90
46508;DHT22;32223;53.654;10.014;2023-06-24T04:47:33;14.90;99.90
46508;DHT22;32223;53.654;10.014;2023-06-24T04:49:59;15.00;99.90
46508;DHT22;32223;53.654;10.014;2023-06-24T04:52:24;15.10;99.90
46508;DHT22;32223;53.654;10.014;2023-06-24T04:54:50;15.10;99.90
46508;DHT22;32223;53.654;10.014;2023-06-24T04:57:34;15.20;99.90
46508;DHT22;32223;53.654;10.014;2023-06-24T05:00:00;15.30;99.90
46508;DHT22;32223;53.654;10.014;2023-06-24T05:02:26;15.30;99.90
46508;DHT22;32223;53.654;10.014;2023-06-24T05:04:52;15.40;99.90
46508;DHT22;32223;53.654;10.014;2023-06-24T05:07:18;15.50;99.90
46508;DHT22;32223;53.654;10.014;2023-06-24T05:09:46;15.70;99.90
46508;DHT22;32223;53.654;10.014;2023-06-24T05:12:12;15.80;99.90
46508;DHT22;32223;53.654;10.014;2023-06-24T05:14:37;15.80;99.90
46508;DHT22;32223;53.654;10.014;2023-06-24T05:17:03;15.90;99.90
46508;DHT22;32223;53.654;10.014;2023-06-24T05:19:29;16.10;99.90
46508;DHT22;32223;53.654;10.014;2023-06-24T05:21:55;16.20;99.90
46508;DHT22;32223;53.654;10.014;2023-06-24T05:24:21;16.30;99.90
46508;DHT22;32223;53.654;10.014;2023-06-24T05:26:50;16.40;99.90
46508;DHT22;32223;53.654;10.014;2023-06-24T05:29:17;16.40;99.90
46508;DHT22;32223;53.654;10.014;2023-06-24T05:31:43;16.50;99.90
46508;DHT22;32223;53.654;10.014;2023-06-24T05:34:08;16.60;99.90
46508;DHT22;32223;53.654;10.014;2023-06-24T05:36:34;16.70;99.90
46508;DHT22;32223;53.654;10.014;2023-06-24T05:39:00;16.80;99.90
46508;DHT22;32223;53.654;10.014;2023-06-24T05:41:26;16.90;99.90
46508;DHT22;32223;53.654;10.014;2023-06-24T05:44:02;17.00;99.90
46508;DHT22;32223;53.654;10.014;2023-06-24T05:46:28;17.00;99.90
46508;DHT22;32223;53.654;10.014;2023-06-24T05:48:54;17.10;99.90
46508;DHT22;32223;53.654;10.014;2023-06-24T05:51:19;17.20;99.90
46508;DHT22;32223;53.654;10.014;2023-06-24T05:53:45;17.40;99.90
46508;DHT22;32223;53.654;10.014;2023-06-24T05:56:10;17.50;99.90
46508;DHT22;32223;53.654;10.014;2023-06-24T05:58:36;17.60;99.90
46508;DHT22;32223;53.654;10.014;2023-06-24T06:01:02;17.80;99.90
46508;DHT22;32223;53.654;10.014;2023-06-24T06:03:28;17.90;99.90
46508;DHT22;32223;53.654;10.014;2023-06-24T06:05:53;18.00;99.90
46508;DHT22;32223;53.654;10.014;2023-06-24T06:08:19;18.20;99.90
46508;DHT22;32223;53.654;10.014;2023-06-24T06:10:44;18.30;99.90
46508;DHT22;32223;53.654;10.014;2023-06-24T06:13:10;18.30;99.90
46508;DHT22;32223;53.654;10.014;2023-06-24T06:15:36;18.40;99.90
46508;DHT22;32223;53.654;10.014;2023-06-24T06:18:01;18.40;99.90
46508;DHT22;32223;53.654;10.014;2023-06-24T06:20:27;18.50;99.90
46508;DHT22;32223;53.654;10.014;2023-06-24T06:22:52;18.50;99.90
46508;DHT22;32223;53.654;10.014;2023-06-24T06:25:18;18.60;99.90
46508;DHT22;32223;53.654;10.014;2023-06-24T06:27:43;18.80;99.90
46508;DHT22;32223;53.654;10.014;2023-06-24T06:30:09;18.90;99.90
46508;DHT22;32223;53.654;10.014;2023-06-24T06:32:35;19.00;99.90
46508;DHT22;32223;53.654;10.014;2023-06-24T06:35:01;19.10;99.90
46508;DHT22;32223;53.654;10.014;2023-06-24T06:37:26;19.20;99.90
46508;DHT22;32223;53.654;10.014;2023-06-24T06:39:52;19.20;99.90
46508;DHT22;32223;53.654;10.014;2023-06-24T06:42:17;19.30;99.90
46508;DHT22;32223;53.654;10.014;2023-06-24T06:44:43;19.10;99.90
46508;DHT22;32223;53.654;10.014;2023-06-24T06:47:10;19.00;99.90
46508;DHT22;32223;53.654;10.014;2023-06-24T06:49:36;19.00;99.90
46508;DHT22;32223;53.654;10.014;2023-06-24T06:52:01;19.00;99.90
46508;DHT22;32223;53.654;10.014;2023-06-24T06:54:27;19.10;99.90
46508;DHT22;32223;53.654;10.014;2023-06-24T06:56:53;19.00;99.90
46508;DHT22;32223;53.654;10.014;2023-06-24T06:59:18;19.00;99.90
46508;DHT22;32223;53.654;10.014;2023-06-24T07:01:44;19.20;99.90
46508;DHT22;32223;53.654;10.014;2023-06-24T07:04:09;19.20;99.90
46508;DHT22;32223;53.654;10.014;2023-06-24T07:06:35;19.40;99.90
46508;DHT22;32223;53.654;10.014;2023-06-24T07:09:01;19.50;99.90
46508;DHT22;32223;53.654;10.014;2023-06-24T07:11:26;19.70;99.90
46508;DHT22;32223;53.654;10.014;2023-06-24T07:13:52;19.80;99.90
46508;DHT22;32223;53.654;10.014;2023-06-24T07:16:18;20.00;99.90
46508;DHT22;32223;53.654;10.014;2023-06-24T07:18:44;20.10;99.90
46508;DHT22;32223;53.654;10.014;2023-06-24T07:21:09;20.20;99.90
46508;DHT22;32223;53.654;10.014;2023-06-24T07:23:35;20.30;99.90
46508;DHT22;32223;53.654;10.014;2023-06-24T07:26:00;20.30;99.90
46508;DHT22;32223;53.654;10.014;2023-06-24T07:28:26;20.30;99.90
46508;DHT22;32223;53.654;10.014;2023-06-24T07:30:52;20.30;99.90
46508;DHT22;32223;53.654;10.014;2023-06-24T07:33:17;20.40;99.90
46508;DHT22;32223;53.654;10.014;2023-06-24T07:35:43;20.50;99.90
46508;DHT22;32223;53.654;10.014;2023-06-24T07:38:08;20.50;99.90
46508;DHT22;32223;53.654;10.014;2023-06-24T07:40:34;20.40;99.90
46508;DHT22;32223;53.654;10.014;2023-06-24T07:42:59;20.50;99.90
46508;DHT22;32223;53.654;10.014;2023-06-24T07:45:25;20.60;99.90
46508;DHT22;32223;53.654;10.014;2023-06-24T07:47:51;20.60;99.90
46508;DHT22;32223;53.654;10.014;2023-06-24T07:50:16;20.70;99.90
46508;DHT22;32223;53.654;10.014;2023-06-24T07:52:42;20.70;99.90
46508;DHT22;32223;53.654;10.014;2023-06-24T07:55:08;20.70;99.90
46508;DHT22;32223;53.654;10.014;2023-06-24T07:57:33;20.90;99.90
46508;DHT22;32223;53.654;10.014;2023-06-24T07:59:59;21.20;99.90
46508;DHT22;32223;53.654;10.014;2023-06-24T08:02:25;21.30;99.90
46508;DHT22;32223;53.654;10.014;2023-06-24T08:04:51;21.40;99.90
46508;DHT22;32223;53.654;10.014;2023-06-24T08:07:17;21.60;99.90
46508;DHT22;32223;53.654;10.014;2023-06-24T08:09:42;21.70;99.90
46508;DHT22;32223;53.654;10.014;2023-06-24T08:12:09;21.60;99.90
46508;DHT22;32223;53.654;10.014;2023-06-24T08:14:34;21.90;99.90
46508;DHT22;32223;53.654;10.014;2023-06-24T08:17:00;21.90;99.90
46508;DHT22;32223;53.654;10.014;2023-06-24T08:19:26;21.90;99.90
46508;DHT22;32223;53.654;10.014;2023-06-24T08:21:52;21.90;99.90
46508;DHT22;32223;53.654;10.014;2023-06-24T08:24:18;21.80;99.90
46508;DHT22;32223;53.654;10.014;2023-06-24T08:26:44;21.80;99.90
46508;DHT22;32223;53.654;10.014;2023-06-24T08:29:10;21.90;99.90
46508;DHT22;32223;53.654;10.014;2023-06-24T08:31:35;22.00;99.90
46508;DHT22;32223;53.654;10.014;2023-06-24T08:34:01;22.00;99.90
46508;DHT22;32223;53.654;10.014;2023-06-24T08:36:32;22.10;99.90
46508;DHT22;32223;53.654;10.014;2023-06-24T08:38:58;22.10;99.90
46508;DHT22;32223;53.654;10.014;2023-06-24T08:41:24;22.20;99.90
46508;DHT22;32223;53.654;10.014;2023-06-24T08:43:53;22.20;99.90
46508;DHT22;32223;53.654;10.014;2023-06-24T08:46:20;22.20;99.90
46508;DHT22;32223;53.654;10.014;2023-06-24T08:48:48;22.10;99.90
46508;DHT22;32223;53.654;10.014;2023-06-24T08:51:18;22.00;99.90
46508;DHT22;32223;53.654;10.014;2023-06-24T08:53:48;22.10;99.90
46508;DHT22;32223;53.654;10.014;2023-06-24T08:56:14;22.00;99.90
46508;DHT22;32223;53.654;10.014;2023-06-24T08:58:40;22.20;99.90
46508;DHT22;32223;53.654;10.014;2023-06-24T09:01:06;22.40;99.90
46508;DHT22;32223;53.654;10.014;2023-06-24T09:03:32;22.40;99.90
46508;DHT22;32223;53.654;10.014;2023-06-24T09:05:58;22.50;99.90
46508;DHT22;32223;53.654;10.014;2023-06-24T09:08:23;22.60;99.90
46508;DHT22;32223;53.654;10.014;2023-06-24T09:10:53;22.70;99.90
46508;DHT22;32223;53.654;10.014;2023-06-24T09:13:20;22.90;99.90
46508;DHT22;32223;53.654;10.014;2023-06-24T09:15:48;23.00;99.90
46508;DHT22;32223;53.654;10.014;2023-06-24T09:18:14;23.00;99.90
46508;DHT22;32223;53.654;10.014;2023-06-24T09:20:42;23.00;99.90
46508;DHT22;32223;53.654;10.014;2023-06-24T09:23:11;22.90;99.90
46508;DHT22;32223;53.654;10.014;2023-06-24T09:25:36;23.00;99.90
46508;DHT22;32223;53.654;10.014;2023-06-24T09:28:03;22.90;99.90
46508;DHT22;32223;53.654;10.014;2023-06-24T09:30:29;23.00;99.90
46508;DHT22;32223;53.654;10.014;2023-06-24T09:32:55;23.10;99.90
46508;DHT22;32223;53.654;10.014;2023-06-24T09:35:22;23.10;99.90
46508;DHT22;32223;53.654;10.014;2023-06-24T09:37:56;23.10;99.90
46508;DHT22;32223;53.654;10.014;2023-06-24T09:40:22;23.30;99.90
46508;DHT22;32223;53.654;10.014;2023-06-24T09:42:58;23.40;99.90
46508;DHT22;32223;53.654;10.014;2023-06-24T09:45:29;23.40;99.90
46508;DHT22;32223;53.654;10.014;2023-06-24T09:47:56;23.30;99.90
46508;DHT22;32223;53.654;10.014;2023-06-24T09:50:23;23.40;99.90
46508;DHT22;32223;53.654;10.014;2023-06-24T09:52:49;23.50;99.90
46508;DHT22;32223;53.654;10.014;2023-06-24T09:55:17;23.60;99.90
46508;DHT22;32223;53.654;10.014;2023-06-24T09:57:49;23.70;99.90
46508;DHT22;32223;53.654;10.014;2023-06-24T10:00:18;23.80;99.90
46508;DHT22;32223;53.654;10.014;2023-06-24T10:02:44;23.70;99.90
46508;DHT22;32223;53.654;10.014;2023-06-24T10:05:13;23.70;99.90
46508;DHT22;32223;53.654;10.014;2023-06-24T10:07:40;23.80;99.90
46508;DHT22;32223;53.654;10.014;2023-06-24T10:10:07;23.80;99.90
46508;DHT22;32223;53.654;10.014;2023-06-24T10:12:37;23.90;99.90
46508;DHT22;32223;53.654;10.014;2023-06-24T10:15:04;24.10;99.90
46508;DHT22;32223;53.654;10.014;2023-06-24T10:17:30;24.20;99.90
46508;DHT22;32223;53.654;10.014;2023-06-24T10:19:56;24.10;99.90
46508;DHT22;32223;53.654;10.014;2023-06-24T10:22:22;24.30;99.90
46508;DHT22;32223;53.654;10.014;2023-06-24T10:24:53;24.30;99.90
46508;DHT22;32223;53.654;10.014;2023-06-24T10:27:21;24.20;99.90
46508;DHT22;32223;53.654;10.014;2023-06-24T10:29:52;24.30;99.90
46508;DHT22;32223;53.654;10.014;2023-06-24T10:32:19;24.40;99.90
46508;DHT22;32223;53.654;10.014;2023-06-24T10:34:54;24.60;99.90
46508;DHT22;32223;53.654;10.014;2023-06-24T10:37:22;24.70;99.90
46508;DHT22;32223;53.654;10.014;2023-06-24T10:42:39;24.80;99.90
46508;DHT22;32223;53.654;10.014;2023-06-24T10:47:43;24.80;99.90
46508;DHT22;32223;53.654;10.014;2023-06-24T10:50:17;24.80;99.90
46508;DHT22;32223;53.654;10.014;2023-06-24T10:52:45;24.80;99.90
46508;DHT22;32223;53.654;10.014;2023-06-24T10:55:18;24.90;99.90
46508;DHT22;32223;53.654;10.014;2023-06-24T10:57:45;25.10;99.90
46508;DHT22;32223;53.654;10.014;2023-06-24T11:00:12;25.30;99.90
46508;DHT22;32223;53.654;10.014;2023-06-24T11:02:37;25.20;99.90
46508;DHT22;32223;53.654;10.014;2023-06-24T11:05:04;24.80;99.90
46508;DHT22;32223;53.654;10.014;2023-06-24T11:07:32;24.90;99.90
46508;DHT22;32223;53.654;10.014;2023-06-24T11:10:05;25.10;99.90
46508;DHT22;32223;53.654;10.014;2023-06-24T11:12:33;25.30;99.90
46508;DHT22;32223;53.654;10.014;2023-06-24T11:15:10;25.20;99.90
46508;DHT22;32223;53.654;10.014;2023-06-24T11:17:37;25.10;99.90
46508;DHT22;32223;53.654;10.014;2023-06-24T11:20:13;25.20;99.90
46508;DHT22;32223;53.654;10.014;2023-06-24T11:22:43;25.40;99.90
46508;DHT22;32223;53.654;10.014;2023-06-24T11:25:19;25.50;99.90
46508;DHT22;32223;53.654;10.014;2023-06-24T11:27:45;25.50;99.90
46508;DHT22;32223;53.654;10.014;2023-06-24T11:30:11;25.30;99.90
46508;DHT22;32223;53.654;10.014;2023-06-24T11:32:39;25.40;99.90
46508;DHT22;32223;53.654;10.014;2023-06-24T11:35:07;25.70;99.90
46508;DHT22;32223;53.654;10.014;2023-06-24T11:37:32;26.10;99.90
46508;DHT22;32223;53.654;10.014;2023-06-24T11:40:05;26.30;99.90
46508;DHT22;32223;53.654;10.014;2023-06-24T11:42:32;26.70;99.90
46508;DHT22;32223;53.654;10.014;2023-06-24T11:45:05;26.70;99.90
46508;DHT22;32223;53.654;10.014;2023-06-24T11:47:35;27.00;99.90
46508;DHT22;32223;53.654;10.014;2023-06-24T11:50:02;26.80;99.90
46508;DHT22;32223;53.654;10.014;2023-06-24T11:52:46;26.50;99.90
46508;DHT22;32223;53.654;10.014;2023-06-24T11:55:20;26.80;99.90
46508;DHT22;32223;53.654;10.014;2023-06-24T11:57:57;27.10;99.90
46508;DHT22;32223;53.654;10.014;2023-06-24T12:00:31;27.10;99.90
46508;DHT22;32223;53.654;10.014;2023-06-24T12:02:59;27.20;99.90
46508;DHT22;32223;53.654;10.014;2023-06-24T12:05:33;27.30;99.90
46508;DHT22;32223;53.654;10.014;2023-06-24T12:10:26;27.70;99.90
46508;DHT22;32223;53.654;10.014;2023-06-24T12:12:52;28.00;99.90
46508;DHT22;32223;53.654;10.014;2023-06-24T12:15:18;27.90;99.90
46508;DHT22;32223;53.654;10.014;2023-06-24T12:17:43;28.20;99.90
46508;DHT22;32223;53.654;10.014;2023-06-24T12:20:09;28.10;99.90
46508;DHT22;32223;53.654;10.014;2023-06-24T12:22:36;28.20;99.90
46508;DHT22;32223;53.654;10.014;2023-06-24T12:25:01;28.00;99.80
46508;DHT22;32223;53.654;10.014;2023-06-24T12:27:27;28.00;99.90
46508;DHT22;32223;53.654;10.014;2023-06-24T12:29:53;28.10;99.90
46508;DHT22;32223;53.654;10.014;2023-06-24T12:32:19;28.10;99.90
46508;DHT22;32223;53.654;10.014;2023-06-24T12:34:44;28.30;99.90
46508;DHT22;32223;53.654;10.014;2023-06-24T12:37:10;28.10;99.20
46508;DHT22;32223;53.654;10.014;2023-06-24T12:39:35;28.00;99.80
46508;DHT22;32223;53.654;10.014;2023-06-24T12:42:01;28.20;99.70
46508;DHT22;32223;53.654;10.014;2023-06-24T12:44:27;28.30;99.30
46508;DHT22;32223;53.654;10.014;2023-06-24T12:46:52;28.00;99.80
46508;DHT22;32223;53.654;10.014;2023-06-24T12:49:18;27.90;99.70
46508;DHT22;32223;53.654;10.014;2023-06-24T12:51:44;28.10;99.70
46508;DHT22;32223;53.654;10.014;2023-06-24T12:54:09;28.70;99.90
46508;DHT22;32223;53.654;10.014;2023-06-24T12:56:35;29.00;99.10
46508;DHT22;32223;53.654;10.014;2023-06-24T12:59:00;29.50;98.70
46508;DHT22;32223;53.654;10.014;2023-06-24T13:01:26;29.70;97.60
46508;DHT22;32223;53.654;10.014;2023-06-24T13:03:51;29.60;97.50
46508;DHT22;32223;53.654;10.014;2023-06-24T13:06:17;29.40;97.10
46508;DHT22;32223;53.654;10.014;2023-06-24T13:08:43;29.90;96.10
46508;DHT22;32223;53.654;10.014;2023-06-24T13:11:09;30.30;95.70
46508;DHT22;32223;53.654;10.014;2023-06-24T13:13:35;30.90;95.70
46508;DHT22;32223;53.654;10.014;2023-06-24T13:16:01;30.90;93.90
46508;DHT22;32223;53.654;10.014;2023-06-24T13:18:26;31.20;93.50
46508;DHT22;32223;53.654;10.014;2023-06-24T13:20:52;31.50;93.50
46508;DHT22;32223;53.654;10.014;2023-06-24T13:23:17;31.80;92.10
46508;DHT22;32223;53.654;10.014;2023-06-24T13:25:43;31.70;90.90
46508;DHT22;32223;53.654;10.014;2023-06-24T13:28:09;31.90;90.40
46508;DHT22;32223;53.654;10.014;2023-06-24T13:30:34;32.50;90.40
46508;DHT22;32223;53.654;10.014;2023-06-24T13:33:00;32.50;85.60
46508;DHT22;32223;53.654;10.014;2023-06-24T13:35:25;32.40;86.70
46508;DHT22;32223;53.654;10.014;2023-06-24T13:37:51;32.20;85.80
46508;DHT22;32223;53.654;10.014;2023-06-24T13:40:17;32.40;85.70
46508;DHT22;32223;53.654;10.014;2023-06-24T13:42:42;33.00;84.20
46508;DHT22;32223;53.654;10.014;2023-06-24T13:45:09;33.60;81.80
46508;DHT22;32223;53.654;10.014;2023-06-24T13:47:36;34.30;81.00
46508;DHT22;32223;53.654;10.014;2023-06-24T13:50:02;34.40;79.40
46508;DHT22;32223;53.654;10.014;2023-06-24T13:52:28;33.30;78.70
46508;DHT22;32223;53.654;10.014;2023-06-24T13:54:54;32.70;80.40
46508;DHT22;32223;53.654;10.014;2023-06-24T13:57:21;32.20;81.10
46508;DHT22;32223;53.654;10.014;2023-06-24T13:59:46;31.40;79.60
46508;DHT22;32223;53.654;10.014;2023-06-24T14:02:12;31.10;81.90
46508;DHT22;32223;53.654;10.014;2023-06-24T14:04:38;31.10;81.00
46508;DHT22;32223;53.654;10.014;2023-06-24T14:07:07;31.20;81.30
46508;DHT22;32223;53.654;10.014;2023-06-24T14:09:33;31.20;80.20
46508;DHT22;32223;53.654;10.014;2023-06-24T14:11:59;31.40;80.80
46508;DHT22;32223;53.654;10.014;2023-06-24T14:14:25;32.10;80.40
46508;DHT22;32223;53.654;10.014;2023-06-24T14:16:51;33.00;79.30
46508;DHT22;32223;53.654;10.014;2023-06-24T14:19:16;33.40;77.20
46508;DHT22;32223;53.654;10.014;2023-06-24T14:21:42;32.80;77.90
46508;DHT22;32223;53.654;10.014;2023-06-24T14:24:07;32.90;78.00
46508;DHT22;32223;53.654;10.014;2023-06-24T14:26:35;33.00;77.80
46508;DHT22;32223;53.654;10.014;2023-06-24T14:29:01;32.50;78.00
46508;DHT22;32223;53.654;10.014;2023-06-24T14:31:27;32.60;79.00
46508;DHT22;32223;53.654;10.014;2023-06-24T14:33:52;33.30;78.30
46508;DHT22;32223;53.654;10.014;2023-06-24T14:36:18;34.10;77.30
46508;DHT22;32223;53.654;10.014;2023-06-24T14:38:44;35.00;75.30
46508;DHT22;32223;53.654;10.014;2023-06-24T14:41:10;35.10;74.90
46508;DHT22;32223;53.654;10.014;2023-06-24T14:43:36;34.80;73.70
46508;DHT22;32223;53.654;10.014;2023-06-24T14:46:02;33.50;75.10
46508;DHT22;32223;53.654;10.014;2023-06-24T14:48:27;32.60;76.40
46508;DHT22;32223;53.654;10.014;2023-06-24T14:50:53;32.70;77.00
46508;DHT22;32223;53.654;10.014;2023-06-24T14:53:19;33.30;76.30
46508;DHT22;32223;53.654;10.014;2023-06-24T14:55:45;33.50;75.00
46508;DHT22;32223;53.654;10.014;2023-06-24T14:58:11;33.80;75.50
46508;DHT22;32223;53.654;10.014;2023-06-24T15:00:36;34.50;72.90
46508;DHT22;32223;53.654;10.014;2023-06-24T15:03:02;34.70;73.40
46508;DHT22;32223;53.654;10.014;2023-06-24T15:05:27;35.10;72.00
46508;DHT22;32223;53.654;10.014;2023-06-24T15:07:53;34.90;71.50
46508;DHT22;32223;53.654;10.014;2023-06-24T15:10:19;34.40;71.60
46508;DHT22;32223;53.654;10.014;2023-06-24T15:12:44;33.10;72.00
46508;DHT22;32223;53.654;10.014;2023-06-24T15:15:10;32.00;73.70
46508;DHT22;32223;53.654;10.014;2023-06-24T15:17:36;32.00;75.30
46508;DHT22;32223;53.654;10.014;2023-06-24T15:20:07;32.20;74.60
46508;DHT22;32223;53.654;10.014;2023-06-24T15:22:33;32.20;74.80
46508;DHT22;32223;53.654;10.014;2023-06-24T15:24:59;31.90;75.40
46508;DHT22;32223;53.654;10.014;2023-06-24T15:27:24;31.40;75.60
46508;DHT22;32223;53.654;10.014;2023-06-24T15:29:50;31.30;76.80
46508;DHT22;32223;53.654;10.014;2023-06-24T15:32:15;31.40;77.20